sensor_id;sensor_type;location;lat;lon;timestamp;P1;durP1;ratioP1;P2;durP2;ratioP2
19907;SDS011;10116;53.112;7.356;2023-05-23T00:02:20;23.00;;;20.80;;
19907;SDS011;10116;53.112;7.356;2023-05-23T00:04:46;23.07;;;20.77;;
19907;SDS011;10116;53.112;7.356;2023-05-23T00:07:13;22.63;;;19.53;;
19907;SDS011;10116;53.112;7.356;2023-05-23T00:09:38;22.07;;;19.77;;
19907;SDS011;10116;53.112;7.356;2023-05-23T00:12:04;21.67;;;19.47;;
19907;SDS011;10116;53.112;7.356;2023-05-23T00:14:30;21.73;;;19.47;;
19907;SDS011;10116;53.112;7.356;2023-05-23T00:16:58;22.00;;;19.70;;
19907;SDS011;10116;53.112;7.356;2023-05-23T00:19:25;19.40;;;17.43;;
19907;SDS011;10116;53.112;7.356;2023-05-23T00:21:50;18.97;;;17.10;;
19907;SDS011;10116;53.112;7.356;2023-05-23T00:24:17;18.53;;;16.73;;
19907;SDS011;10116;53.112;7.356;2023-05-23T00:26:44;19.73;;;17.73;;
19907;SDS011;10116;53.112;7.356;2023-05-23T00:29:10;20.33;;;17.37;;
19907;SDS011;10116;53.112;7.356;2023-05-23T00:31:40;19.50;;;17.50;;
19907;SDS011;10116;53.112;7.356;2023-05-23T00:34:11;22.50;;;19.23;;
19907;SDS011;10116;53.112;7.356;2023-05-23T00:36:41;19.33;;;17.43;;
19907;SDS011;10116;53.112;7.356;2023-05-23T00:39:08;19.60;;;17.57;;
19907;SDS011;10116;53.112;7.356;2023-05-23T00:41:41;20.83;;;18.73;;
19907;SDS011;10116;53.112;7.356;2023-05-23T00:44:06;20.50;;;17.17;;
19907;SDS011;10116;53.112;7.356;2023-05-23T00:46:33;21.63;;;19.10;;
19907;SDS011;10116;53.112;7.356;2023-05-23T00:49:00;21.10;;;19.00;;
19907;SDS011;10116;53.112;7.356;2023-05-23T00:51:25;20.70;;;18.57;;
19907;SDS011;10116;53.112;7.356;2023-05-23T00:53:52;20.60;;;18.50;;
19907;SDS011;10116;53.112;7.356;2023-05-23T00:56:18;20.00;;;18.00;;
19907;SDS011;10116;53.112;7.356;2023-05-23T00:58:44;21.97;;;18.90;;
19907;SDS011;10116;53.112;7.356;2023-05-23T01:01:11;23.57;;;19.70;;
19907;SDS011;10116;53.112;7.356;2023-05-23T01:03:37;19.77;;;17.77;;
19907;SDS011;10116;53.112;7.356;2023-05-23T01:06:03;21.20;;;18.90;;
19907;SDS011;10116;53.112;7.356;2023-05-23T01:08:29;20.63;;;18.57;;
19907;SDS011;10116;53.112;7.356;2023-05-23T01:10:55;21.53;;;19.23;;
19907;SDS011;10116;53.112;7.356;2023-05-23T01:21:21;20.27;;;18.07;;
19907;SDS011;10116;53.112;7.356;2023-05-23T01:29:08;20.90;;;18.23;;
19907;SDS011;10116;53.112;7.356;2023-05-23T01:31:38;17.93;;;15.90;;
19907;SDS011;10116;53.112;7.356;2023-05-23T01:34:08;19.47;;;17.47;;
19907;SDS011;10116;53.112;7.356;2023-05-23T01:36:42;19.10;;;17.10;;
19907;SDS011;10116;53.112;7.356;2023-05-23T01:39:08;19.37;;;17.27;;
19907;SDS011;10116;53.112;7.356;2023-05-23T01:41:34;16.80;;;15.10;;
19907;SDS011;10116;53.112;7.356;2023-05-23T01:44:00;19.07;;;16.87;;
19907;SDS011;10116;53.112;7.356;2023-05-23T01:46:27;18.60;;;15.70;;
19907;SDS011;10116;53.112;7.356;2023-05-23T01:48:54;18.17;;;16.27;;
19907;SDS011;10116;53.112;7.356;2023-05-23T01:51:22;18.47;;;16.47;;
19907;SDS011;10116;53.112;7.356;2023-05-23T01:53:49;17.70;;;15.87;;
19907;SDS011;10116;53.112;7.356;2023-05-23T01:56:15;17.03;;;15.40;;
19907;SDS011;10116;53.112;7.356;2023-05-23T01:58:41;17.33;;;15.53;;
19907;SDS011;10116;53.112;7.356;2023-05-23T02:01:07;17.37;;;15.57;;
19907;SDS011;10116;53.112;7.356;2023-05-23T02:03:34;18.47;;;15.70;;
19907;SDS011;10116;53.112;7.356;2023-05-23T02:06:00;18.47;;;16.13;;
19907;SDS011;10116;53.112;7.356;2023-05-23T02:08:25;16.43;;;14.73;;
19907;SDS011;10116;53.112;7.356;2023-05-23T02:10:51;16.20;;;14.47;;
19907;SDS011;10116;53.112;7.356;2023-05-23T02:13:16;18.17;;;15.73;;
19907;SDS011;10116;53.112;7.356;2023-05-23T02:15:42;16.27;;;14.33;;
19907;SDS011;10116;53.112;7.356;2023-05-23T02:18:08;16.27;;;14.40;;
19907;SDS011;10116;53.112;7.356;2023-05-23T02:20:34;14.90;;;13.40;;
19907;SDS011;10116;53.112;7.356;2023-05-23T02:22:59;15.37;;;13.83;;
19907;SDS011;10116;53.112;7.356;2023-05-23T02:25:25;16.83;;;14.70;;
19907;SDS011;10116;53.112;7.356;2023-05-23T02:27:50;16.53;;;13.90;;
19907;SDS011;10116;53.112;7.356;2023-05-23T02:30:16;17.40;;;14.00;;
19907;SDS011;10116;53.112;7.356;2023-05-23T02:32:41;20.13;;;14.77;;
19907;SDS011;10116;53.112;7.356;2023-05-23T02:35:07;16.60;;;14.80;;
19907;SDS011;10116;53.112;7.356;2023-05-23T02:37:34;15.70;;;14.00;;
19907;SDS011;10116;53.112;7.356;2023-05-23T02:40:00;16.30;;;14.17;;
19907;SDS011;10116;53.112;7.356;2023-05-23T02:42:25;18.60;;;14.40;;
19907;SDS011;10116;53.112;7.356;2023-05-23T02:44:51;15.90;;;13.47;;
19907;SDS011;10116;53.112;7.356;2023-05-23T02:47:17;16.93;;;13.50;;
19907;SDS011;10116;53.112;7.356;2023-05-23T02:49:42;15.57;;;13.80;;
19907;SDS011;10116;53.112;7.356;2023-05-23T02:52:08;14.00;;;12.60;;
19907;SDS011;10116;53.112;7.356;2023-05-23T02:54:34;17.67;;;13.60;;
19907;SDS011;10116;53.112;7.356;2023-05-23T02:56:59;15.60;;;12.57;;
19907;SDS011;10116;53.112;7.356;2023-05-23T02:59:25;14.10;;;12.67;;
19907;SDS011;10116;53.112;7.356;2023-05-23T03:01:51;15.17;;;12.30;;
19907;SDS011;10116;53.112;7.356;2023-05-23T03:04:16;14.67;;;11.50;;
19907;SDS011;10116;53.112;7.356;2023-05-23T03:06:42;12.87;;;11.40;;
19907;SDS011;10116;53.112;7.356;2023-05-23T03:09:09;14.00;;;12.60;;
19907;SDS011;10116;53.112;7.356;2023-05-23T03:11:35;14.97;;;12.00;;
19907;SDS011;10116;53.112;7.356;2023-05-23T03:14:01;13.60;;;12.13;;
19907;SDS011;10116;53.112;7.356;2023-05-23T03:16:26;13.10;;;11.70;;
19907;SDS011;10116;53.112;7.356;2023-05-23T03:18:52;14.37;;;12.77;;
19907;SDS011;10116;53.112;7.356;2023-05-23T03:21:17;18.83;;;12.90;;
19907;SDS011;10116;53.112;7.356;2023-05-23T03:23:43;14.37;;;12.70;;
19907;SDS011;10116;53.112;7.356;2023-05-23T03:26:09;14.50;;;13.03;;
19907;SDS011;10116;53.112;7.356;2023-05-23T03:28:34;16.27;;;12.73;;
19907;SDS011;10116;53.112;7.356;2023-05-23T03:31:00;13.97;;;12.57;;
19907;SDS011;10116;53.112;7.356;2023-05-23T03:33:26;13.63;;;12.17;;
19907;SDS011;10116;53.112;7.356;2023-05-23T03:35:51;14.17;;;12.67;;
19907;SDS011;10116;53.112;7.356;2023-05-23T03:38:17;14.30;;;12.80;;
19907;SDS011;10116;53.112;7.356;2023-05-23T03:40:42;15.50;;;13.00;;
19907;SDS011;10116;53.112;7.356;2023-05-23T03:43:08;14.53;;;12.23;;
19907;SDS011;10116;53.112;7.356;2023-05-23T03:45:34;13.27;;;11.97;;
19907;SDS011;10116;53.112;7.356;2023-05-23T03:47:59;13.30;;;11.97;;
19907;SDS011;10116;53.112;7.356;2023-05-23T03:50:25;13.10;;;11.90;;
19907;SDS011;10116;53.112;7.356;2023-05-23T03:52:51;13.33;;;12.00;;
19907;SDS011;10116;53.112;7.356;2023-05-23T03:55:18;13.40;;;12.00;;
19907;SDS011;10116;53.112;7.356;2023-05-23T03:57:49;15.40;;;12.33;;
19907;SDS011;10116;53.112;7.356;2023-05-23T04:00:15;13.07;;;11.70;;
19907;SDS011;10116;53.112;7.356;2023-05-23T04:02:42;13.07;;;11.73;;
19907;SDS011;10116;53.112;7.356;2023-05-23T04:05:10;12.00;;;10.70;;
19907;SDS011;10116;53.112;7.356;2023-05-23T04:07:36;12.20;;;10.90;;
19907;SDS011;10116;53.112;7.356;2023-05-23T04:10:02;12.50;;;11.20;;
19907;SDS011;10116;53.112;7.356;2023-05-23T04:12:29;11.03;;;9.93;;
19907;SDS011;10116;53.112;7.356;2023-05-23T04:14:54;11.43;;;10.23;;
19907;SDS011;10116;53.112;7.356;2023-05-23T04:17:20;12.73;;;9.57;;
19907;SDS011;10116;53.112;7.356;2023-05-23T04:19:46;11.10;;;10.00;;
19907;SDS011;10116;53.112;7.356;2023-05-23T04:22:12;12.70;;;10.20;;
19907;SDS011;10116;53.112;7.356;2023-05-23T04:24:37;11.40;;;10.20;;
19907;SDS011;10116;53.112;7.356;2023-05-23T04:27:03;10.10;;;9.03;;
19907;SDS011;10116;53.112;7.356;2023-05-23T04:29:29;10.23;;;8.77;;
19907;SDS011;10116;53.112;7.356;2023-05-23T04:31:58;10.97;;;8.30;;
19907;SDS011;10116;53.112;7.356;2023-05-23T04:34:24;10.17;;;8.37;;
19907;SDS011;10116;53.112;7.356;2023-05-23T04:36:51;9.87;;;8.40;;
19907;SDS011;10116;53.112;7.356;2023-05-23T04:39:17;9.30;;;8.07;;
19907;SDS011;10116;53.112;7.356;2023-05-23T04:41:44;9.43;;;8.20;;
19907;SDS011;10116;53.112;7.356;2023-05-23T04:44:10;9.33;;;8.13;;
19907;SDS011;10116;53.112;7.356;2023-05-23T04:46:36;9.97;;;8.47;;
19907;SDS011;10116;53.112;7.356;2023-05-23T04:49:05;9.73;;;7.93;;
19907;SDS011;10116;53.112;7.356;2023-05-23T04:51:34;10.93;;;8.23;;
19907;SDS011;10116;53.112;7.356;2023-05-23T04:54:00;8.10;;;7.33;;
19907;SDS011;10116;53.112;7.356;2023-05-23T04:56:26;7.97;;;6.70;;
19907;SDS011;10116;53.112;7.356;2023-05-23T04:58:53;12.27;;;7.33;;
19907;SDS011;10116;53.112;7.356;2023-05-23T05:01:18;7.83;;;6.93;;
19907;SDS011;10116;53.112;7.356;2023-05-23T05:03:44;8.50;;;6.63;;
19907;SDS011;10116;53.112;7.356;2023-05-23T05:06:11;7.67;;;6.97;;
19907;SDS011;10116;53.112;7.356;2023-05-23T05:08:37;7.67;;;6.87;;
19907;SDS011;10116;53.112;7.356;2023-05-23T05:11:04;7.00;;;6.27;;
19907;SDS011;10116;53.112;7.356;2023-05-23T05:13:30;7.00;;;6.37;;
19907;SDS011;10116;53.112;7.356;2023-05-23T05:15:56;7.43;;;6.63;;
19907;SDS011;10116;53.112;7.356;2023-05-23T05:18:22;8.30;;;6.03;;
19907;SDS011;10116;53.112;7.356;2023-05-23T05:20:49;6.20;;;5.60;;
19907;SDS011;10116;53.112;7.356;2023-05-23T05:23:15;7.60;;;6.20;;
19907;SDS011;10116;53.112;7.356;2023-05-23T05:25:40;7.17;;;5.40;;
19907;SDS011;10116;53.112;7.356;2023-05-23T05:28:06;8.07;;;5.60;;
19907;SDS011;10116;53.112;7.356;2023-05-23T05:30:32;5.83;;;5.07;;
19907;SDS011;10116;53.112;7.356;2023-05-23T05:32:59;9.07;;;6.20;;
19907;SDS011;10116;53.112;7.356;2023-05-23T05:35:28;6.27;;;5.67;;
19907;SDS011;10116;53.112;7.356;2023-05-23T05:37:56;7.70;;;5.00;;
19907;SDS011;10116;53.112;7.356;2023-05-23T05:40:22;6.33;;;5.10;;
19907;SDS011;10116;53.112;7.356;2023-05-23T05:42:48;6.93;;;5.40;;
19907;SDS011;10116;53.112;7.356;2023-05-23T05:45:14;6.63;;;4.97;;
19907;SDS011;10116;53.112;7.356;2023-05-23T05:47:39;5.67;;;4.70;;
19907;SDS011;10116;53.112;7.356;2023-05-23T05:50:05;7.37;;;5.40;;
19907;SDS011;10116;53.112;7.356;2023-05-23T05:52:33;5.17;;;4.67;;
19907;SDS011;10116;53.112;7.356;2023-05-23T05:55:02;4.73;;;4.33;;
19907;SDS011;10116;53.112;7.356;2023-05-23T05:57:30;6.00;;;4.73;;
19907;SDS011;10116;53.112;7.356;2023-05-23T05:59:56;6.30;;;4.80;;
19907;SDS011;10116;53.112;7.356;2023-05-23T06:02:22;4.20;;;3.80;;
19907;SDS011;10116;53.112;7.356;2023-05-23T06:04:48;6.83;;;3.90;;
19907;SDS011;10116;53.112;7.356;2023-05-23T06:07:13;6.13;;;4.50;;
19907;SDS011;10116;53.112;7.356;2023-05-23T06:09:39;6.80;;;3.70;;
19907;SDS011;10116;53.112;7.356;2023-05-23T06:12:05;4.60;;;4.10;;
19907;SDS011;10116;53.112;7.356;2023-05-23T06:14:30;4.27;;;3.70;;
19907;SDS011;10116;53.112;7.356;2023-05-23T06:16:56;5.00;;;3.93;;
19907;SDS011;10116;53.112;7.356;2023-05-23T06:19:21;5.27;;;3.97;;
19907;SDS011;10116;53.112;7.356;2023-05-23T06:21:47;5.40;;;3.57;;
19907;SDS011;10116;53.112;7.356;2023-05-23T06:24:13;4.07;;;3.30;;
19907;SDS011;10116;53.112;7.356;2023-05-23T06:26:38;4.03;;;3.73;;
19907;SDS011;10116;53.112;7.356;2023-05-23T06:29:04;4.53;;;3.10;;
19907;SDS011;10116;53.112;7.356;2023-05-23T06:31:29;9.40;;;4.03;;
19907;SDS011;10116;53.112;7.356;2023-05-23T06:33:55;4.60;;;3.67;;
19907;SDS011;10116;53.112;7.356;2023-05-23T06:36:21;3.50;;;3.20;;
19907;SDS011;10116;53.112;7.356;2023-05-23T06:38:46;4.53;;;3.50;;
19907;SDS011;10116;53.112;7.356;2023-05-23T06:41:12;5.10;;;3.37;;
19907;SDS011;10116;53.112;7.356;2023-05-23T06:43:38;4.40;;;3.43;;
19907;SDS011;10116;53.112;7.356;2023-05-23T06:46:03;5.00;;;3.13;;
19907;SDS011;10116;53.112;7.356;2023-05-23T06:48:29;4.60;;;3.13;;
19907;SDS011;10116;53.112;7.356;2023-05-23T06:50:54;3.53;;;3.10;;
19907;SDS011;10116;53.112;7.356;2023-05-23T06:53:20;5.67;;;3.90;;
19907;SDS011;10116;53.112;7.356;2023-05-23T06:55:46;4.67;;;3.40;;
19907;SDS011;10116;53.112;7.356;2023-05-23T06:58:11;5.50;;;2.87;;
19907;SDS011;10116;53.112;7.356;2023-05-23T07:00:37;3.60;;;3.23;;
19907;SDS011;10116;53.112;7.356;2023-05-23T07:03:03;3.80;;;2.90;;
19907;SDS011;10116;53.112;7.356;2023-05-23T07:05:29;5.70;;;3.20;;
19907;SDS011;10116;53.112;7.356;2023-05-23T07:07:54;3.10;;;2.87;;
19907;SDS011;10116;53.112;7.356;2023-05-23T07:10:20;5.87;;;3.07;;
19907;SDS011;10116;53.112;7.356;2023-05-23T07:12:46;4.67;;;3.10;;
19907;SDS011;10116;53.112;7.356;2023-05-23T07:15:12;4.50;;;3.17;;
19907;SDS011;10116;53.112;7.356;2023-05-23T07:17:39;4.37;;;2.90;;
19907;SDS011;10116;53.112;7.356;2023-05-23T07:20:05;3.70;;;3.17;;
19907;SDS011;10116;53.112;7.356;2023-05-23T07:22:31;4.73;;;3.50;;
19907;SDS011;10116;53.112;7.356;2023-05-23T07:24:56;3.60;;;2.93;;
19907;SDS011;10116;53.112;7.356;2023-05-23T07:27:22;4.17;;;3.13;;
19907;SDS011;10116;53.112;7.356;2023-05-23T07:29:48;4.60;;;2.70;;
19907;SDS011;10116;53.112;7.356;2023-05-23T07:32:13;4.80;;;2.80;;
19907;SDS011;10116;53.112;7.356;2023-05-23T07:34:39;7.60;;;3.33;;
19907;SDS011;10116;53.112;7.356;2023-05-23T07:37:05;4.03;;;2.57;;
19907;SDS011;10116;53.112;7.356;2023-05-23T07:39:30;3.87;;;2.70;;
19907;SDS011;10116;53.112;7.356;2023-05-23T07:41:56;3.27;;;2.90;;
19907;SDS011;10116;53.112;7.356;2023-05-23T07:44:21;7.07;;;3.00;;
19907;SDS011;10116;53.112;7.356;2023-05-23T07:46:47;3.93;;;2.97;;
19907;SDS011;10116;53.112;7.356;2023-05-23T07:49:13;3.93;;;2.00;;
19907;SDS011;10116;53.112;7.356;2023-05-23T07:51:38;3.87;;;2.90;;
19907;SDS011;10116;53.112;7.356;2023-05-23T07:54:05;4.03;;;2.97;;
19907;SDS011;10116;53.112;7.356;2023-05-23T07:56:31;4.13;;;2.30;;
19907;SDS011;10116;53.112;7.356;2023-05-23T07:58:57;5.07;;;3.07;;
19907;SDS011;10116;53.112;7.356;2023-05-23T08:01:22;2.63;;;2.10;;
19907;SDS011;10116;53.112;7.356;2023-05-23T08:03:49;2.70;;;2.50;;
19907;SDS011;10116;53.112;7.356;2023-05-23T08:06:15;4.20;;;2.70;;
19907;SDS011;10116;53.112;7.356;2023-05-23T08:08:40;3.03;;;2.73;;
19907;SDS011;10116;53.112;7.356;2023-05-23T08:11:07;3.70;;;2.47;;
19907;SDS011;10116;53.112;7.356;2023-05-23T08:13:33;4.70;;;2.87;;
19907;SDS011;10116;53.112;7.356;2023-05-23T08:15:59;5.40;;;3.10;;
19907;SDS011;10116;53.112;7.356;2023-05-23T08:18:25;4.33;;;2.87;;
19907;SDS011;10116;53.112;7.356;2023-05-23T08:20:50;6.57;;;2.73;;
19907;SDS011;10116;53.112;7.356;2023-05-23T08:23:16;7.00;;;3.00;;
19907;SDS011;10116;53.112;7.356;2023-05-23T08:25:42;5.13;;;3.37;;
19907;SDS011;10116;53.112;7.356;2023-05-23T08:28:08;4.73;;;2.90;;
19907;SDS011;10116;53.112;7.356;2023-05-23T08:30:34;3.37;;;2.93;;
19907;SDS011;10116;53.112;7.356;2023-05-23T08:33:00;3.13;;;2.70;;
19907;SDS011;10116;53.112;7.356;2023-05-23T08:35:28;6.20;;;2.93;;
19907;SDS011;10116;53.112;7.356;2023-05-23T08:37:59;7.27;;;2.90;;
19907;SDS011;10116;53.112;7.356;2023-05-23T08:40:25;5.50;;;3.10;;
19907;SDS011;10116;53.112;7.356;2023-05-23T08:42:53;4.17;;;2.83;;
19907;SDS011;10116;53.112;7.356;2023-05-23T08:45:19;3.87;;;2.90;;
19907;SDS011;10116;53.112;7.356;2023-05-23T08:47:45;5.33;;;2.50;;
19907;SDS011;10116;53.112;7.356;2023-05-23T08:50:15;4.33;;;2.77;;
19907;SDS011;10116;53.112;7.356;2023-05-23T08:52:54;4.10;;;2.87;;
19907;SDS011;10116;53.112;7.356;2023-05-23T08:55:23;4.47;;;2.40;;
19907;SDS011;10116;53.112;7.356;2023-05-23T08:57:52;6.47;;;2.80;;
19907;SDS011;10116;53.112;7.356;2023-05-23T09:00:18;5.03;;;3.20;;
19907;SDS011;10116;53.112;7.356;2023-05-23T09:02:45;4.43;;;3.00;;
19907;SDS011;10116;53.112;7.356;2023-05-23T09:05:11;3.47;;;2.30;;
19907;SDS011;10116;53.112;7.356;2023-05-23T09:07:38;5.40;;;2.97;;
19907;SDS011;10116;53.112;7.356;2023-05-23T09:10:05;3.30;;;2.30;;
19907;SDS011;10116;53.112;7.356;2023-05-23T09:12:34;9.97;;;3.40;;
19907;SDS011;10116;53.112;7.356;2023-05-23T09:15:01;7.20;;;2.53;;
19907;SDS011;10116;53.112;7.356;2023-05-23T09:17:31;6.10;;;2.73;;
19907;SDS011;10116;53.112;7.356;2023-05-23T09:20:00;8.13;;;2.80;;
19907;SDS011;10116;53.112;7.356;2023-05-23T09:22:26;7.57;;;3.27;;
19907;SDS011;10116;53.112;7.356;2023-05-23T09:24:53;6.93;;;3.40;;
19907;SDS011;10116;53.112;7.356;2023-05-23T09:27:20;8.90;;;3.10;;
19907;SDS011;10116;53.112;7.356;2023-05-23T09:29:45;6.93;;;3.20;;
19907;SDS011;10116;53.112;7.356;2023-05-23T09:32:18;5.27;;;2.80;;
19907;SDS011;10116;53.112;7.356;2023-05-23T09:34:57;2.80;;;2.50;;
19907;SDS011;10116;53.112;7.356;2023-05-23T09:39:59;4.43;;;2.60;;
19907;SDS011;10116;53.112;7.356;2023-05-23T09:42:35;5.80;;;2.60;;
19907;SDS011;10116;53.112;7.356;2023-05-23T09:45:10;4.50;;;2.87;;
19907;SDS011;10116;53.112;7.356;2023-05-23T09:47:37;3.03;;;2.57;;
19907;SDS011;10116;53.112;7.356;2023-05-23T09:50:02;6.37;;;3.00;;
19907;SDS011;10116;53.112;7.356;2023-05-23T09:52:35;4.23;;;2.63;;
19907;SDS011;10116;53.112;7.356;2023-05-23T09:55:05;12.10;;;3.90;;
19907;SDS011;10116;53.112;7.356;2023-05-23T09:57:32;3.33;;;2.63;;
19907;SDS011;10116;53.112;7.356;2023-05-23T10:00:00;5.03;;;2.70;;
19907;SDS011;10116;53.112;7.356;2023-05-23T10:03:16;10.60;;;3.20;;
19907;SDS011;10116;53.112;7.356;2023-05-23T10:05:30;4.63;;;2.70;;
19907;SDS011;10116;53.112;7.356;2023-05-23T10:08:13;8.23;;;2.67;;
19907;SDS011;10116;53.112;7.356;2023-05-23T10:13:38;3.30;;;2.30;;
19907;SDS011;10116;53.112;7.356;2023-05-23T10:18:42;6.90;;;3.20;;
19907;SDS011;10116;53.112;7.356;2023-05-23T10:21:13;3.87;;;2.60;;
19907;SDS011;10116;53.112;7.356;2023-05-23T10:23:48;5.07;;;2.40;;
19907;SDS011;10116;53.112;7.356;2023-05-23T10:26:15;5.40;;;2.50;;
19907;SDS011;10116;53.112;7.356;2023-05-23T10:28:42;9.30;;;3.87;;
19907;SDS011;10116;53.112;7.356;2023-05-23T10:31:09;4.30;;;2.87;;
19907;SDS011;10116;53.112;7.356;2023-05-23T10:33:38;5.70;;;2.63;;
19907;SDS011;10116;53.112;7.356;2023-05-23T10:36:18;5.63;;;2.80;;
19907;SDS011;10116;53.112;7.356;2023-05-23T10:41:26;5.77;;;3.00;;
19907;SDS011;10116;53.112;7.356;2023-05-23T10:44:09;8.43;;;3.30;;
19907;SDS011;10116;53.112;7.356;2023-05-23T10:46:49;6.20;;;3.10;;
19907;SDS011;10116;53.112;7.356;2023-05-23T10:49:20;5.33;;;3.20;;
19907;SDS011;10116;53.112;7.356;2023-05-23T10:51:49;7.30;;;3.33;;
19907;SDS011;10116;53.112;7.356;2023-05-23T10:54:18;4.10;;;2.93;;
19907;SDS011;10116;53.112;7.356;2023-05-23T10:56:44;3.07;;;2.40;;
19907;SDS011;10116;53.112;7.356;2023-05-23T10:59:18;4.50;;;2.83;;
19907;SDS011;10116;53.112;7.356;2023-05-23T11:01:49;6.63;;;3.10;;
19907;SDS011;10116;53.112;7.356;2023-05-23T11:04:23;5.07;;;2.43;;
19907;SDS011;10116;53.112;7.356;2023-05-23T11:06:53;5.40;;;3.10;;
19907;SDS011;10116;53.112;7.356;2023-05-23T11:09:20;5.40;;;3.43;;
19907;SDS011;10116;53.112;7.356;2023-05-23T11:15:05;4.47;;;2.80;;
19907;SDS011;10116;53.112;7.356;2023-05-23T11:17:30;5.33;;;2.80;;
19907;SDS011;10116;53.112;7.356;2023-05-23T11:19:58;5.33;;;3.37;;
19907;SDS011;10116;53.112;7.356;2023-05-23T11:22:31;4.60;;;2.63;;
19907;SDS011;10116;53.112;7.356;2023-05-23T11:24:58;4.13;;;2.70;;
19907;SDS011;10116;53.112;7.356;2023-05-23T11:27:35;6.87;;;3.00;;
19907;SDS011;10116;53.112;7.356;2023-05-23T11:30:03;6.90;;;3.17;;
19907;SDS011;10116;53.112;7.356;2023-05-23T11:32:32;6.60;;;2.70;;
19907;SDS011;10116;53.112;7.356;2023-05-23T11:34:59;4.93;;;2.80;;
19907;SDS011;10116;53.112;7.356;2023-05-23T11:37:26;5.90;;;2.80;;
19907;SDS011;10116;53.112;7.356;2023-05-23T11:39:53;5.47;;;3.23;;
19907;SDS011;10116;53.112;7.356;2023-05-23T11:42:19;4.10;;;2.70;;
19907;SDS011;10116;53.112;7.356;2023-05-23T11:44:47;5.50;;;2.30;;
19907;SDS011;10116;53.112;7.356;2023-05-23T11:47:14;5.90;;;2.93;;
19907;SDS011;10116;53.112;7.356;2023-05-23T11:49:40;3.27;;;2.33;;
19907;SDS011;10116;53.112;7.356;2023-05-23T11:52:08;5.30;;;2.63;;
19907;SDS011;10116;53.112;7.356;2023-05-23T11:54:34;5.87;;;3.20;;
19907;SDS011;10116;53.112;7.356;2023-05-23T11:56:59;4.33;;;2.80;;
19907;SDS011;10116;53.112;7.356;2023-05-23T11:59:27;2.87;;;2.00;;
19907;SDS011;10116;53.112;7.356;2023-05-23T12:01:53;4.37;;;2.40;;
19907;SDS011;10116;53.112;7.356;2023-05-23T12:04:20;5.00;;;2.53;;
19907;SDS011;10116;53.112;7.356;2023-05-23T12:06:46;3.37;;;2.53;;
19907;SDS011;10116;53.112;7.356;2023-05-23T12:09:13;5.50;;;2.57;;
19907;SDS011;10116;53.112;7.356;2023-05-23T12:11:40;5.37;;;2.80;;
19907;SDS011;10116;53.112;7.356;2023-05-23T12:14:06;3.67;;;2.37;;
19907;SDS011;10116;53.112;7.356;2023-05-23T12:16:33;5.60;;;2.80;;
19907;SDS011;10116;53.112;7.356;2023-05-23T12:19:01;4.37;;;2.87;;
19907;SDS011;10116;53.112;7.356;2023-05-23T12:21:40;3.37;;;2.33;;
19907;SDS011;10116;53.112;7.356;2023-05-23T12:24:13;4.57;;;2.20;;
19907;SDS011;10116;53.112;7.356;2023-05-23T12:31:58;3.23;;;2.07;;
19907;SDS011;10116;53.112;7.356;2023-05-23T12:34:28;4.13;;;2.37;;
19907;SDS011;10116;53.112;7.356;2023-05-23T12:36:54;5.53;;;2.80;;
19907;SDS011;10116;53.112;7.356;2023-05-23T12:39:27;5.07;;;2.30;;
19907;SDS011;10116;53.112;7.356;2023-05-23T12:41:53;3.40;;;2.13;;
19907;SDS011;10116;53.112;7.356;2023-05-23T12:44:23;4.13;;;2.43;;
19907;SDS011;10116;53.112;7.356;2023-05-23T12:46:54;6.13;;;2.20;;
19907;SDS011;10116;53.112;7.356;2023-05-23T12:49:19;3.17;;;2.60;;
19907;SDS011;10116;53.112;7.356;2023-05-23T12:51:45;3.37;;;2.10;;
19907;SDS011;10116;53.112;7.356;2023-05-23T12:54:11;3.50;;;2.10;;
19907;SDS011;10116;53.112;7.356;2023-05-23T12:56:37;5.70;;;2.67;;
19907;SDS011;10116;53.112;7.356;2023-05-23T12:59:02;4.67;;;2.47;;
19907;SDS011;10116;53.112;7.356;2023-05-23T13:01:28;2.33;;;2.13;;
19907;SDS011;10116;53.112;7.356;2023-05-23T13:03:54;4.73;;;2.00;;
19907;SDS011;10116;53.112;7.356;2023-05-23T13:06:20;4.30;;;2.30;;
19907;SDS011;10116;53.112;7.356;2023-05-23T13:08:45;4.90;;;2.50;;
19907;SDS011;10116;53.112;7.356;2023-05-23T13:11:12;6.00;;;2.33;;
19907;SDS011;10116;53.112;7.356;2023-05-23T13:13:38;4.27;;;2.37;;
19907;SDS011;10116;53.112;7.356;2023-05-23T13:16:03;3.60;;;1.93;;
19907;SDS011;10116;53.112;7.356;2023-05-23T13:18:29;3.60;;;2.20;;
19907;SDS011;10116;53.112;7.356;2023-05-23T13:20:55;6.03;;;2.20;;
19907;SDS011;10116;53.112;7.356;2023-05-23T13:23:21;6.80;;;2.10;;
19907;SDS011;10116;53.112;7.356;2023-05-23T13:25:46;5.93;;;2.10;;
19907;SDS011;10116;53.112;7.356;2023-05-23T13:28:14;4.17;;;2.03;;
19907;SDS011;10116;53.112;7.356;2023-05-23T13:30:40;4.93;;;2.63;;
19907;SDS011;10116;53.112;7.356;2023-05-23T13:33:05;2.47;;;1.87;;
19907;SDS011;10116;53.112;7.356;2023-05-23T13:35:31;3.83;;;2.03;;
19907;SDS011;10116;53.112;7.356;2023-05-23T13:37:57;3.77;;;2.07;;
19907;SDS011;10116;53.112;7.356;2023-05-23T13:40:22;7.20;;;2.87;;
19907;SDS011;10116;53.112;7.356;2023-05-23T13:42:48;7.10;;;2.80;;
19907;SDS011;10116;53.112;7.356;2023-05-23T13:45:15;7.17;;;2.30;;
19907;SDS011;10116;53.112;7.356;2023-05-23T13:47:42;2.67;;;2.00;;
19907;SDS011;10116;53.112;7.356;2023-05-23T13:50:08;4.20;;;2.70;;
19907;SDS011;10116;53.112;7.356;2023-05-23T13:52:33;4.80;;;2.10;;
19907;SDS011;10116;53.112;7.356;2023-05-23T13:55:00;4.00;;;2.20;;
19907;SDS011;10116;53.112;7.356;2023-05-23T13:57:26;5.73;;;2.17;;
19907;SDS011;10116;53.112;7.356;2023-05-23T13:59:52;5.00;;;2.50;;
19907;SDS011;10116;53.112;7.356;2023-05-23T14:02:18;4.50;;;2.40;;
19907;SDS011;10116;53.112;7.356;2023-05-23T14:04:43;8.37;;;2.37;;
19907;SDS011;10116;53.112;7.356;2023-05-23T14:07:09;3.80;;;2.23;;
19907;SDS011;10116;53.112;7.356;2023-05-23T14:09:35;6.00;;;2.50;;
19907;SDS011;10116;53.112;7.356;2023-05-23T14:12:00;3.27;;;2.07;;
19907;SDS011;10116;53.112;7.356;2023-05-23T14:14:26;6.03;;;2.10;;
19907;SDS011;10116;53.112;7.356;2023-05-23T14:16:51;6.93;;;2.60;;
19907;SDS011;10116;53.112;7.356;2023-05-23T14:19:17;4.47;;;1.87;;
19907;SDS011;10116;53.112;7.356;2023-05-23T14:21:43;5.03;;;2.00;;
19907;SDS011;10116;53.112;7.356;2023-05-23T14:24:10;2.30;;;1.80;;
19907;SDS011;10116;53.112;7.356;2023-05-23T14:26:35;5.97;;;2.40;;
19907;SDS011;10116;53.112;7.356;2023-05-23T14:29:01;5.50;;;2.27;;
19907;SDS011;10116;53.112;7.356;2023-05-23T14:31:27;4.50;;;2.13;;
19907;SDS011;10116;53.112;7.356;2023-05-23T14:33:53;4.90;;;2.40;;
19907;SDS011;10116;53.112;7.356;2023-05-23T14:36:19;4.70;;;2.23;;
19907;SDS011;10116;53.112;7.356;2023-05-23T14:38:44;3.43;;;2.23;;
19907;SDS011;10116;53.112;7.356;2023-05-23T14:41:11;7.97;;;2.10;;
19907;SDS011;10116;53.112;7.356;2023-05-23T14:43:37;3.83;;;2.10;;
19907;SDS011;10116;53.112;7.356;2023-05-23T14:46:03;5.23;;;2.23;;
19907;SDS011;10116;53.112;7.356;2023-05-23T14:48:30;4.20;;;2.07;;
19907;SDS011;10116;53.112;7.356;2023-05-23T14:50:56;6.90;;;2.90;;
19907;SDS011;10116;53.112;7.356;2023-05-23T14:53:25;3.80;;;2.17;;
19907;SDS011;10116;53.112;7.356;2023-05-23T14:55:51;4.10;;;2.00;;
19907;SDS011;10116;53.112;7.356;2023-05-23T14:58:19;4.07;;;2.17;;
19907;SDS011;10116;53.112;7.356;2023-05-23T15:00:46;5.80;;;2.47;;
19907;SDS011;10116;53.112;7.356;2023-05-23T15:03:12;3.53;;;1.97;;
19907;SDS011;10116;53.112;7.356;2023-05-23T15:05:38;2.10;;;1.70;;
19907;SDS011;10116;53.112;7.356;2023-05-23T15:08:04;5.23;;;2.47;;
19907;SDS011;10116;53.112;7.356;2023-05-23T15:10:29;6.07;;;2.30;;
19907;SDS011;10116;53.112;7.356;2023-05-23T15:12:55;2.13;;;1.93;;